createdAt,value
2022-08-18T00:01:22.446Z,74.25
2022-08-18T00:03:56.032Z,68.93
2022-08-18T00:06:28.438Z,69.50
2022-08-18T00:08:55.398Z,70.68
2022-08-18T00:11:21.908Z,69.65
2022-08-18T00:13:48.316Z,69.43
2022-08-18T00:16:14.747Z,67.15
2022-08-18T00:18:41.166Z,69.95
2022-08-18T00:21:07.675Z,69.78
2022-08-18T00:23:34.108Z,71.75
2022-08-18T00:26:00.638Z,71.88
2022-08-18T00:28:27.071Z,70.57
2022-08-18T00:30:53.908Z,74.15
2022-08-18T00:33:21.341Z,70.47
2022-08-18T00:35:47.851Z,70.65
2022-08-18T00:38:24.577Z,61.00
2022-08-18T00:40:54.494Z,62.17
2022-08-18T00:43:28.178Z,62.08
2022-08-18T00:45:54.686Z,65.88
2022-08-18T00:48:23.860Z,66.03
2022-08-18T00:50:56.848Z,70.65
2022-08-18T00:53:33.359Z,70.90
2022-08-18T00:56:05.427Z,72.85
2022-08-18T01:01:05.808Z,73.10
2022-08-18T01:03:33.745Z,73.18
2022-08-18T01:06:04.725Z,73.68
2022-08-18T01:08:31.611Z,73.45
2022-08-18T01:11:01.677Z,72.63
2022-08-18T01:13:32.963Z,74.05
2022-08-18T01:15:59.538Z,74.20
2022-08-18T01:18:52.028Z,70.93
2022-08-18T01:24:09.896Z,74.03
2022-08-18T01:26:38.225Z,72.30
2022-08-18T01:29:18.842Z,74.88
2022-08-18T01:31:56.012Z,69.72
2022-08-18T01:34:25.190Z,72.47
2022-08-18T01:36:52.450Z,71.60
2022-08-18T01:40:59.906Z,69.72
2022-08-18T01:42:06.353Z,70.65
2022-08-18T01:44:33.650Z,70.15
2022-08-18T01:47:00.093Z,73.45
2022-08-18T01:49:28.727Z,73.82
2022-08-18T01:51:55.686Z,70.13
2022-08-18T01:54:22.741Z,70.97
2022-08-18T01:56:49.444Z,75.07
2022-08-18T01:59:15.970Z,73.72
2022-08-18T02:01:48.410Z,71.90
2022-08-18T02:04:34.457Z,73.93
2022-08-18T02:07:02.849Z,72.95
2022-08-18T02:09:30.780Z,71.10
2022-08-18T02:11:57.429Z,73.13
2022-08-18T02:14:26.904Z,72.28
2022-08-18T02:17:01.502Z,70.10
2022-08-18T02:19:35.949Z,69.60
2022-08-18T02:22:02.929Z,71.13
2022-08-18T02:24:29.520Z,67.88
2022-08-18T02:26:56.018Z,67.38
2022-08-18T02:29:22.453Z,71.57
2022-08-18T02:31:49.108Z,66.22
2022-08-18T02:34:16.871Z,67.32
2022-08-18T02:36:43.977Z,71.47
2022-08-18T02:39:10.410Z,69.05
2022-08-18T02:41:37.004Z,70.68
2022-08-18T02:44:04.655Z,69.53
2022-08-18T02:46:31.483Z,69.53
2022-08-18T02:48:59.533Z,70.93
2022-08-18T02:51:26.248Z,64.10
2022-08-18T02:53:53.718Z,61.90
2022-08-18T02:56:33.018Z,61.33
2022-08-18T02:59:10.985Z,63.20
2022-08-18T03:01:39.873Z,66.75
2022-08-18T03:04:08.595Z,68.13
2022-08-18T03:06:36.668Z,67.15
2022-08-18T03:09:05.559Z,67.53
2022-08-18T03:11:32.156Z,67.07
2022-08-18T03:14:00.230Z,69.47
2022-08-18T03:16:26.782Z,73.90
2022-08-18T03:18:53.645Z,77.55
2022-08-18T03:21:23.435Z,79.28
2022-08-18T03:24:00.334Z,80.43
2022-08-18T03:26:28.601Z,81.47
2022-08-18T03:28:55.285Z,81.07
2022-08-18T03:31:23.204Z,80.88
2022-08-18T03:33:51.830Z,79.10
2022-08-18T03:36:23.604Z,80.35
2022-08-18T03:38:52.474Z,80.80
2022-08-18T03:41:43.435Z,76.43
2022-08-18T03:44:10.865Z,79.45
2022-08-18T03:46:37.868Z,74.30
2022-08-18T03:49:04.316Z,79.13
2022-08-18T03:51:32.337Z,80.35
2022-08-18T03:54:03.830Z,80.68
2022-08-18T03:56:38.840Z,78.88
2022-08-18T03:59:11.988Z,75.47
2022-08-18T04:01:41.030Z,73.80
2022-08-18T04:04:10.869Z,73.95
2022-08-18T04:06:41.581Z,75.68
2022-08-18T04:09:11.147Z,73.78
2022-08-18T04:11:38.445Z,74.00
2022-08-18T04:14:05.866Z,76.75
2022-08-18T04:16:32.802Z,75.00
2022-08-18T04:19:05.185Z,79.07
2022-08-18T04:21:33.727Z,79.78
2022-08-18T04:24:04.824Z,76.93
2022-08-18T04:26:32.953Z,78.57
2022-08-18T04:29:01.377Z,79.03
2022-08-18T04:31:29.516Z,75.00
2022-08-18T04:33:57.298Z,78.88
2022-08-18T04:36:24.065Z,77.60
2022-08-18T04:38:50.543Z,77.30
2022-08-18T04:41:17.702Z,78.30
2022-08-18T04:43:44.144Z,80.47
2022-08-18T04:46:11.523Z,84.95
2022-08-18T04:48:40.510Z,85.50
2022-08-18T04:51:13.332Z,79.53
2022-08-18T04:54:00.790Z,82.68
2022-08-18T04:56:34.684Z,82.50
2022-08-18T04:59:12.426Z,80.47
2022-08-18T05:01:45.491Z,81.43
2022-08-18T05:04:13.587Z,78.97
2022-08-18T05:06:40.612Z,76.18
2022-08-18T05:09:08.895Z,82.93
2022-08-18T05:11:36.615Z,78.80
2022-08-18T05:14:08.793Z,80.68
2022-08-18T05:19:19.255Z,80.30
2022-08-18T05:21:45.996Z,84.10
2022-08-18T05:24:17.381Z,82.17
2022-08-18T05:26:44.453Z,82.10
2022-08-18T05:29:18.689Z,83.05
2022-08-18T05:31:47.656Z,78.43
2022-08-18T05:34:14.272Z,83.13
2022-08-18T05:36:50.257Z,79.75
2022-08-18T05:39:31.165Z,82.10
2022-08-18T05:42:08.534Z,84.22
2022-08-18T05:44:40.390Z,81.28
2022-08-18T05:47:18.706Z,80.20
2022-08-18T05:49:48.008Z,81.70
2022-08-18T05:52:47.427Z,81.40
2022-08-18T05:55:35.443Z,83.70
2022-08-18T05:58:06.182Z,80.88
2022-08-18T06:00:32.981Z,84.03
2022-08-18T06:03:22.508Z,84.68
2022-08-18T06:05:58.393Z,82.15
2022-08-18T06:08:29.523Z,84.05
2022-08-18T06:10:55.967Z,84.82
2022-08-18T06:13:22.403Z,82.53
2022-08-18T06:16:10.004Z,86.40
2022-08-18T06:18:47.743Z,84.68
2022-08-18T06:21:29.341Z,80.65
2022-08-18T06:24:01.869Z,84.15
2022-08-18T06:26:49.083Z,77.00
2022-08-18T06:29:35.062Z,76.65
2022-08-18T06:32:19.716Z,76.72
2022-08-18T06:35:01.528Z,75.93
2022-08-18T06:37:34.286Z,77.80
2022-08-18T06:40:02.144Z,77.00
2022-08-18T06:42:31.764Z,74.38
2022-08-18T06:45:05.510Z,73.97
2022-08-18T06:47:49.324Z,71.90
2022-08-18T06:50:36.637Z,73.38
2022-08-18T06:53:08.410Z,72.05
2022-08-18T06:55:54.899Z,71.80
2022-08-18T06:58:27.129Z,74.80
2022-08-18T07:00:56.010Z,71.13
2022-08-18T07:03:40.026Z,73.55
2022-08-18T07:06:11.713Z,75.03
2022-08-18T07:08:42.783Z,74.10
2022-08-18T07:11:11.892Z,76.50
2022-08-18T07:13:40.549Z,75.30
2022-08-18T07:16:34.300Z,74.38
2022-08-18T07:19:13.186Z,77.25
2022-08-18T07:21:43.476Z,76.28
2022-08-18T07:24:29.616Z,76.65
2022-08-18T07:27:00.035Z,74.80
2022-08-18T07:29:26.659Z,76.40
2022-08-18T07:31:55.017Z,77.47
2022-08-18T07:34:29.080Z,77.32
2022-08-18T07:36:59.782Z,73.47
2022-08-18T07:39:31.813Z,70.28
2022-08-18T07:45:09.934Z,72.53
2022-08-18T07:47:50.438Z,72.90
2022-08-18T07:50:36.435Z,73.18
2022-08-18T07:53:26.675Z,75.68
2022-08-18T07:55:59.953Z,73.35
2022-08-18T07:58:48.939Z,76.95
2022-08-18T08:01:29.297Z,74.10
2022-08-18T08:04:26.070Z,76.75
2022-08-18T08:07:23.832Z,75.18
2022-08-18T08:10:15.265Z,73.03
2022-08-18T08:13:51.330Z,73.40
2022-08-18T08:16:20.454Z,72.35
2022-08-18T08:19:49.188Z,75.40
2022-08-18T08:22:23.091Z,71.13
2022-08-18T08:24:59.218Z,73.07
2022-08-18T08:27:42.289Z,73.40
2022-08-18T08:30:13.220Z,74.45
2022-08-18T08:33:01.584Z,73.18
2022-08-18T08:35:49.393Z,72.88
2022-08-18T08:38:43.021Z,72.68
2022-08-18T08:41:51.974Z,72.70
2022-08-18T08:44:33.933Z,69.32
2022-08-18T08:47:03.811Z,72.00
2022-08-18T08:49:40.901Z,66.28
2022-08-18T08:52:18.772Z,65.78
2022-08-18T08:54:59.359Z,66.10
2022-08-18T08:57:55.052Z,66.72
2022-08-18T09:00:21.635Z,66.97
2022-08-18T09:03:09.160Z,64.95
2022-08-18T09:05:53.481Z,64.80
2022-08-18T09:08:42.801Z,65.07
2022-08-18T09:11:12.276Z,62.47
2022-08-18T09:13:54.088Z,63.05
2022-08-18T09:16:39.161Z,60.97
2022-08-18T09:19:15.834Z,61.65
2022-08-18T09:21:57.138Z,58.72
2022-08-18T09:24:26.411Z,60.93
2022-08-18T09:27:14.728Z,59.10
2022-08-18T09:29:54.020Z,57.83
2022-08-18T09:32:22.858Z,59.05
2022-08-18T09:34:59.449Z,59.97
2022-08-18T09:37:28.522Z,59.85
2022-08-18T09:40:19.488Z,55.90
2022-08-18T09:43:12.607Z,58.38
2022-08-18T09:45:55.726Z,57.35
2022-08-18T09:48:30.461Z,58.20
2022-08-18T09:51:18.204Z,57.53
2022-08-18T09:53:54.824Z,58.03
2022-08-18T09:56:53.644Z,56.45
2022-08-18T09:59:34.296Z,54.72
2022-08-18T10:02:28.699Z,56.90
2022-08-18T10:05:20.042Z,57.75
2022-08-18T10:07:58.470Z,56.90
2022-08-18T10:11:01.347Z,57.75
2022-08-18T10:14:02.455Z,57.33
2022-08-18T10:17:13.173Z,57.78
2022-08-18T10:19:41.611Z,57.33
2022-08-18T10:22:10.818Z,58.40
2022-08-18T10:24:54.101Z,53.92
2022-08-18T10:27:41.810Z,55.70
2022-08-18T10:30:31.136Z,53.80
2022-08-18T10:33:17.609Z,53.42
2022-08-18T10:35:59.317Z,52.42
2022-08-18T10:41:23.460Z,52.53
2022-08-18T10:46:42.546Z,58.42
2022-08-18T10:49:13.287Z,51.80
2022-08-18T10:51:59.404Z,53.10
2022-08-18T10:54:54.576Z,50.85
2022-08-18T10:57:48.245Z,49.70
2022-08-18T11:00:19.273Z,48.70
2022-08-18T11:03:02.828Z,52.67
2022-08-18T11:05:41.399Z,48.80
2022-08-18T11:08:16.012Z,49.40
2022-08-18T11:11:06.668Z,50.95
2022-08-18T11:13:52.932Z,51.40
2022-08-18T11:16:54.580Z,48.13
2022-08-18T11:19:22.723Z,51.20
2022-08-18T11:21:52.375Z,48.47
2022-08-18T11:24:31.308Z,50.85
2022-08-18T11:27:04.075Z,51.45
2022-08-18T11:29:42.719Z,50.70
2022-08-18T11:32:32.790Z,53.13
2022-08-18T11:35:06.127Z,52.95
2022-08-18T11:37:51.316Z,50.83
2022-08-18T11:40:51.606Z,52.58
2022-08-18T11:43:40.732Z,53.50
2022-08-18T11:46:13.871Z,53.30
2022-08-18T11:48:51.814Z,51.70
2022-08-18T11:51:23.860Z,51.55
2022-08-18T11:54:02.581Z,54.00
2022-08-18T11:56:37.639Z,52.78
2022-08-18T11:59:09.152Z,55.78
2022-08-18T12:01:45.741Z,51.03
2022-08-18T12:04:18.058Z,52.83
2022-08-18T12:06:56.514Z,54.05
2022-08-18T12:12:24.210Z,50.05
2022-08-18T12:15:13.947Z,47.35
2022-08-18T12:17:52.723Z,45.35
2022-08-18T12:20:20.658Z,44.28
2022-08-18T12:22:49.183Z,38.90
2022-08-18T12:25:24.600Z,37.28
2022-08-18T12:27:52.141Z,38.17
2022-08-18T12:30:19.099Z,36.53
2022-08-18T12:32:49.433Z,37.95
2022-08-18T12:38:12.467Z,30.00
2022-08-18T12:40:35.807Z,33.38
2022-08-18T12:43:02.251Z,34.33
2022-08-18T12:45:30.894Z,30.45
2022-08-18T12:47:57.828Z,28.42
2022-08-18T12:50:31.110Z,24.77
2022-08-18T12:52:59.991Z,26.73
2022-08-18T12:55:28.456Z,30.85
2022-08-18T12:57:54.893Z,43.35
2022-08-18T13:00:21.372Z,46.10
2022-08-18T13:02:55.818Z,47.28
2022-08-18T13:05:26.364Z,45.38
2022-08-18T13:08:04.037Z,43.70
2022-08-18T13:10:45.794Z,46.22
2022-08-18T13:13:15.720Z,43.17
2022-08-18T13:15:55.481Z,43.00
2022-08-18T13:18:27.173Z,43.15
2022-08-18T13:20:55.177Z,40.40
2022-08-18T13:23:24.910Z,40.13
2022-08-18T13:25:52.169Z,38.88
2022-08-18T13:28:30.479Z,36.72
2022-08-18T13:30:57.595Z,35.60
2022-08-18T13:33:35.203Z,34.60
2022-08-18T13:36:11.931Z,22.83
2022-08-18T13:38:40.394Z,21.35
2022-08-18T13:41:15.663Z,21.48
2022-08-18T13:43:44.379Z,19.70
2022-08-18T13:46:13.337Z,19.83
2022-08-18T13:48:41.795Z,19.95
2022-08-18T13:51:09.895Z,19.02
2022-08-18T13:53:50.436Z,19.17
2022-08-18T13:56:31.219Z,19.65
2022-08-18T13:58:58.275Z,17.92
2022-08-18T14:01:44.490Z,17.80
2022-08-18T14:04:14.912Z,16.70
2022-08-18T14:06:46.916Z,16.40
2022-08-18T14:09:36.132Z,15.57
2022-08-18T14:12:15.334Z,17.30
2022-08-18T14:14:42.078Z,15.95
2022-08-18T14:17:08.959Z,15.55
2022-08-18T14:19:53.927Z,12.23
2022-08-18T14:22:41.268Z,13.07
2022-08-18T14:25:27.883Z,12.00
2022-08-18T14:27:56.413Z,13.40
2022-08-18T14:30:23.666Z,13.38
2022-08-18T14:32:50.203Z,15.07
2022-08-18T14:35:33.919Z,14.93
2022-08-18T14:38:07.066Z,13.80
2022-08-18T14:40:36.768Z,14.23
2022-08-18T14:43:09.005Z,12.93
2022-08-18T14:45:36.248Z,11.43
2022-08-18T14:48:07.346Z,13.48
2022-08-18T14:50:37.461Z,17.02
2022-08-18T14:53:05.928Z,15.95
2022-08-18T14:55:32.366Z,12.45
2022-08-18T14:58:00.725Z,8.85
2022-08-18T15:00:29.559Z,9.77
2022-08-18T15:02:59.752Z,9.63
2022-08-18T15:05:27.123Z,10.63
2022-08-18T15:07:53.618Z,11.00
2022-08-18T15:10:23.726Z,11.77
2022-08-18T15:12:54.917Z,13.30
2022-08-18T15:15:22.381Z,12.07
2022-08-18T15:17:50.360Z,12.23
2022-08-18T15:20:23.862Z,10.35
2022-08-18T15:23:13.883Z,9.52
2022-08-18T15:25:44.927Z,9.45
2022-08-18T15:28:21.311Z,9.38
2022-08-18T15:30:51.493Z,6.70
2022-08-18T15:33:22.027Z,7.75
2022-08-18T15:35:50.710Z,7.28
2022-08-18T15:38:19.025Z,7.35
2022-08-18T15:41:00.072Z,6.07
2022-08-18T15:43:32.585Z,6.53
2022-08-18T15:46:00.438Z,5.60
2022-08-18T15:48:30.182Z,6.07
2022-08-18T15:50:56.870Z,5.78
2022-08-18T15:53:29.785Z,6.35
2022-08-18T15:55:56.672Z,5.40
2022-08-18T15:58:26.825Z,5.78
2022-08-18T16:00:55.234Z,5.15
2022-08-18T16:03:21.777Z,5.40
2022-08-18T16:05:54.054Z,5.13
2022-08-18T16:08:22.445Z,5.45
2022-08-18T16:10:48.999Z,6.25
2022-08-18T16:13:15.761Z,5.97
2022-08-18T16:15:46.714Z,5.55
2022-08-18T16:18:14.363Z,6.22
2022-08-18T16:20:41.436Z,6.00
2022-08-18T16:23:07.855Z,5.57
2022-08-18T16:25:34.319Z,6.40
2022-08-18T16:28:01.244Z,6.15
2022-08-18T16:30:28.439Z,6.50
2022-08-18T16:32:55.204Z,5.85
2022-08-18T16:35:22.536Z,6.20
2022-08-18T16:37:49.657Z,6.30
2022-08-18T16:40:18.466Z,5.97
2022-08-18T16:42:45.513Z,5.80
2022-08-18T16:45:13.278Z,5.90
2022-08-18T16:47:41.209Z,6.07
2022-08-18T16:50:13.649Z,6.40
2022-08-18T16:52:40.665Z,5.63
2022-08-18T16:55:08.934Z,5.80
2022-08-18T16:57:57.134Z,5.90
2022-08-18T17:00:43.273Z,5.72
2022-08-18T17:03:28.696Z,5.40
2022-08-18T17:06:10.762Z,5.60
2022-08-18T17:08:38.238Z,5.25
2022-08-18T17:11:06.677Z,5.18
2022-08-18T17:13:33.323Z,5.68
2022-08-18T17:15:59.747Z,6.18
2022-08-18T17:18:26.170Z,5.32
2022-08-18T17:20:52.718Z,8.20
2022-08-18T17:23:22.169Z,9.73
2022-08-18T17:25:49.528Z,8.50
2022-08-18T17:28:19.272Z,8.27
2022-08-18T17:30:51.554Z,8.20
2022-08-18T17:33:29.703Z,7.60
2022-08-18T17:35:57.872Z,7.72
2022-08-18T17:38:34.085Z,7.70
2022-08-18T17:41:01.323Z,6.82
2022-08-18T17:43:34.060Z,7.15
2022-08-18T17:46:04.667Z,7.13
2022-08-18T17:48:37.347Z,6.05
2022-08-18T17:51:29.341Z,5.65
2022-08-18T17:53:59.176Z,5.50
2022-08-18T17:56:35.801Z,5.10
2022-08-18T17:59:45.267Z,6.22
2022-08-18T18:02:19.052Z,5.95
2022-08-18T18:04:57.998Z,5.40
2022-08-18T18:07:33.546Z,5.80
2022-08-18T18:10:21.969Z,5.70
2022-08-18T18:13:06.152Z,5.30
2022-08-18T18:15:33.480Z,5.43
2022-08-18T18:18:36.810Z,5.93
2022-08-18T18:21:08.530Z,5.40
2022-08-18T18:23:41.148Z,5.43
2022-08-18T18:26:37.940Z,6.38
2022-08-18T18:29:12.622Z,5.63
2022-08-18T18:31:40.656Z,6.43
2022-08-18T18:34:23.209Z,6.47
2022-08-18T18:36:54.482Z,5.72
2022-08-18T18:39:33.275Z,6.40
2022-08-18T18:42:17.582Z,5.80
2022-08-18T18:44:51.845Z,6.00
2022-08-18T18:47:33.193Z,6.03
2022-08-18T18:50:09.886Z,6.47
2022-08-18T18:52:56.561Z,5.95
2022-08-18T18:55:26.776Z,6.35
2022-08-18T18:58:07.925Z,6.40
2022-08-18T19:00:44.404Z,6.28
2022-08-18T19:03:37.742Z,6.47
2022-08-18T19:06:26.866Z,6.45
2022-08-18T19:09:17.686Z,6.63
2022-08-18T19:12:10.380Z,6.13
2022-08-18T19:14:41.972Z,6.22
2022-08-18T19:17:23.025Z,6.07
2022-08-18T19:19:52.502Z,6.43
2022-08-18T19:22:42.050Z,6.35
2022-08-18T19:25:46.728Z,6.57
2022-08-18T19:28:25.406Z,7.00
2022-08-18T19:30:53.933Z,7.35
2022-08-18T19:33:38.774Z,7.55
2022-08-18T19:36:26.614Z,8.57
2022-08-18T19:38:59.483Z,8.52
2022-08-18T19:41:58.496Z,9.35
2022-08-18T19:44:35.656Z,8.95
2022-08-18T19:47:28.006Z,8.73
2022-08-18T19:52:46.753Z,7.85
2022-08-18T19:55:33.330Z,8.77
2022-08-18T19:58:35.314Z,7.78
2022-08-18T20:01:05.936Z,7.88
2022-08-18T20:04:19.638Z,8.10
2022-08-18T20:07:16.959Z,7.28
2022-08-18T20:09:52.382Z,7.93
2022-08-18T20:12:37.597Z,7.63
2022-08-18T20:15:08.671Z,8.63
2022-08-18T20:17:57.574Z,8.45
2022-08-18T20:20:29.390Z,8.32
2022-08-18T20:22:58.611Z,8.35
2022-08-18T20:25:25.023Z,8.02
2022-08-18T20:27:53.318Z,7.68
2022-08-18T20:30:19.653Z,8.43
2022-08-18T20:33:07.705Z,8.05
2022-08-18T20:35:46.989Z,8.32
2022-08-18T20:38:19.514Z,8.00
2022-08-18T20:40:49.673Z,8.68
2022-08-18T20:43:42.701Z,8.73
2022-08-18T20:46:47.537Z,7.50
2022-08-18T20:49:35.257Z,8.68
2022-08-18T20:52:06.967Z,8.40
2022-08-18T20:54:33.369Z,8.77
2022-08-18T20:57:02.052Z,8.23
2022-08-18T20:59:36.057Z,8.70
2022-08-18T21:02:24.266Z,8.65
2022-08-18T21:04:54.306Z,9.45
2022-08-18T21:08:02.904Z,8.85
2022-08-18T21:10:31.964Z,8.35
2022-08-18T21:13:00.762Z,8.70
2022-08-18T21:15:37.151Z,9.15
2022-08-18T21:18:18.255Z,9.98
2022-08-18T21:20:47.112Z,10.05
2022-08-18T21:23:13.940Z,9.57
2022-08-18T21:25:53.681Z,10.10
2022-08-18T21:28:21.587Z,9.27
2022-08-18T21:31:29.017Z,10.23
2022-08-18T21:33:50.010Z,10.52
2022-08-18T21:36:18.317Z,10.73
2022-08-18T21:39:03.483Z,10.30
2022-08-18T21:41:33.345Z,10.30
2022-08-18T21:44:07.552Z,9.40
2022-08-18T21:46:34.061Z,9.90
2022-08-18T21:49:02.460Z,10.13
2022-08-18T21:51:48.543Z,10.45
2022-08-18T21:54:28.488Z,11.32
2022-08-18T21:57:18.358Z,11.07
2022-08-18T22:00:23.784Z,11.05
2022-08-18T22:02:53.645Z,11.40
2022-08-18T22:05:30.941Z,10.60
2022-08-18T22:08:19.888Z,10.75
2022-08-18T22:11:41.868Z,11.20
2022-08-18T22:14:18.449Z,11.13
2022-08-18T22:16:46.407Z,10.90
2022-08-18T22:19:19.028Z,11.20
2022-08-18T22:22:24.357Z,11.52
2022-08-18T22:24:56.437Z,11.93
2022-08-18T22:27:25.957Z,12.52
2022-08-18T22:30:05.176Z,12.60
2022-08-18T22:32:33.345Z,13.10
2022-08-18T22:34:59.765Z,12.93
2022-08-18T22:37:28.051Z,12.27
2022-08-18T22:40:01.737Z,12.63
2022-08-18T22:42:32.698Z,13.27
2022-08-18T22:45:08.749Z,13.75
2022-08-18T22:47:44.951Z,12.48
2022-08-18T22:50:12.406Z,16.45
2022-08-18T22:52:44.492Z,15.30
2022-08-18T22:57:39.796Z,16.23
2022-08-18T23:00:10.268Z,15.93
2022-08-18T23:02:36.832Z,16.33
2022-08-18T23:05:04.521Z,16.85
2022-08-18T23:07:31.407Z,16.88
2022-08-18T23:09:58.785Z,16.75
2022-08-18T23:12:25.528Z,16.02
2022-08-18T23:14:53.346Z,16.65
2022-08-18T23:17:21.429Z,16.30
2022-08-18T23:19:48.308Z,17.52
2022-08-18T23:22:19.118Z,16.45
2022-08-18T23:24:45.575Z,14.68
2022-08-18T23:27:11.990Z,16.05
2022-08-18T23:29:39.641Z,15.85
2022-08-18T23:32:06.822Z,16.35
2022-08-18T23:34:34.404Z,17.83
2022-08-18T23:37:01.541Z,16.83
2022-08-18T23:39:29.569Z,17.00
2022-08-18T23:41:56.056Z,18.58
2022-08-18T23:44:27.678Z,16.90
2022-08-18T23:46:55.711Z,16.40
2022-08-18T23:49:23.346Z,17.20
2022-08-18T23:51:51.260Z,16.38
2022-08-18T23:54:24.414Z,17.30
2022-08-18T23:56:50.825Z,18.52
2022-08-18T23:59:18.676Z,17.33
